Language: 


Des rapports , des résumés tant et plus, au choix de chacun....


Données statistiques de la station
Quotidien Rapport Mars 2, 2017 Unités:  Anglais    Métrique   les deux
« Précédent Jour
Suivant Jour »
Quotidien Hebdomadaire Mensuel Annuel Actuel
  Haut: Bas: Moyen:
Température: 51.6 °F 37.9 °F 46 °F
Pt de rosée: 46.9 °F 29.7 °F 34.3 °F
Humidité: 97 % 51 % 64 %
Vitesse du vent: 32.4 mph 0 mph 16.1 mph
Rafales: 36.9 mph - -
Vent:- - WSW
Pression: 30 in 29.5 in -
Précipitation: 0.01 in    
Historical Graphs
 
 
Données statistiques pour Mars 2, 2017
Heure Température Point de rosée Pression Vent Vitesse du vent Refales Humidité Pluie (taux horaire)
00:03 47.7 °F 46.9 °F 29.5 in WSW 19.7 mph 19.7 mph 97 % 0.04 in
00:08 47.7 °F 46.6 °F 29.5 in WSW 19.7 mph 19.7 mph 96 % 0.04 in
00:13 47.7 °F 46 °F 29.5 in WSW 19.7 mph 19.7 mph 94 % 0.04 in
00:18 47.5 °F 45.3 °F 29.5 in WSW 23.7 mph 23.7 mph 92 % 0.04 in
00:23 47.3 °F 44.1 °F 29.5 in WSW 28.6 mph 28.6 mph 88 % 0.03 in
00:28 47.3 °F 43.2 °F 29.5 in WSW 23.5 mph 28.6 mph 85 % 0.03 in
00:33 47.1 °F 42.6 °F 29.5 in WSW 23.5 mph 28.6 mph 84 % 0.03 in
00:38 46.9 °F 41.7 °F 29.5 in WSW 23.5 mph 23.5 mph 82 % 0.03 in
00:43 46.9 °F 41.2 °F 29.5 in WSW 23.5 mph 23.5 mph 80 % 0.02 in
00:48 46.9 °F 41.2 °F 29.5 in WSW 23.5 mph 23.5 mph 80 % 0.01 in
00:53 46.8 °F 41.4 °F 29.5 in WSW 23.5 mph 23.5 mph 81 % 0.01 in
00:58 46.8 °F 41 °F 29.5 in WSW 23.5 mph 23.5 mph 80 % 0.01 in
01:03 46.6 °F 40.8 °F 29.5 in WSW 23.5 mph 23.5 mph 80 % 0.01 in
01:08 46.6 °F 40.5 °F 29.5 in WSW 23.5 mph 23.5 mph 79 % 0.01 in
01:13 46.6 °F 40.1 °F 29.5 in WSW 23.5 mph 23.5 mph 78 % 0.01 in
01:18 46.6 °F 40.3 °F 29.5 in West 23 mph 23 mph 79 % 0.01 in
01:23 46.6 °F 39.9 °F 29.5 in West 12.5 mph 23.9 mph 78 % 0.01 in
01:28 46.6 °F 40.3 °F 29.5 in West 15.2 mph 23.9 mph 79 % 0 in
01:33 46.6 °F 40.3 °F 29.5 in West 23.7 mph 23.7 mph 79 % 0 in
01:38 46.6 °F 39.9 °F 29.6 in West 23.7 mph 23.7 mph 78 % 0 in
01:43 46.6 °F 39.6 °F 29.6 in West 20.1 mph 23.7 mph 77 % 0 in
01:48 46.2 °F 39.6 °F 29.6 in West 20.1 mph 23.7 mph 77 % 0 in
01:53 46.6 °F 39.6 °F 29.5 in West 23.5 mph 23.5 mph 77 % 0 in
01:58 46.6 °F 39.6 °F 29.5 in West 14.8 mph 23.5 mph 77 % 0 in
02:03 46.6 °F 39.7 °F 29.5 in West 14.8 mph 23.5 mph 77 % 0 in
02:08 46.6 °F 39.6 °F 29.6 in WSW 22.6 mph 23 mph 76 % 0 in
02:13 46.6 °F 39 °F 29.6 in WSW 22.6 mph 23 mph 75 % 0 in
02:18 46.2 °F 38.8 °F 29.6 in West 22.6 mph 22.6 mph 75 % 0 in
02:23 46 °F 38.3 °F 29.6 in West 31.3 mph 31.3 mph 74 % 0 in
02:28 45.9 °F 37.8 °F 29.6 in West 31.3 mph 31.3 mph 73 % 0 in
02:33 45.9 °F 37.2 °F 29.6 in West 31.3 mph 31.3 mph 72 % 0 in
02:38 45.7 °F 37 °F 29.6 in West 31.3 mph 31.3 mph 72 % 0 in
02:44 45.3 °F 36.9 °F 29.6 in West 24.4 mph 31.3 mph 72 % 0 in
02:49 45.1 °F 36.3 °F 29.6 in WNW 19 mph 24.4 mph 71 % 0 in
02:54 45.1 °F 35.4 °F 29.6 in WNW 19 mph 24.4 mph 69 % 0 in
02:59 45.1 °F 34.7 °F 29.6 in WNW 19 mph 19 mph 67 % 0 in
03:04 44.8 °F 35.2 °F 29.6 in West 19.9 mph 19.9 mph 69 % 0 in
03:09 44.4 °F 34.2 °F 29.6 in West 19.5 mph 27.3 mph 67 % 0 in
03:14 44.4 °F 34 °F 29.6 in West 19.5 mph 27.3 mph 66 % 0 in
03:19 44.4 °F 33.1 °F 29.6 in SW 19.9 mph 29.5 mph 64 % 0 in
03:24 44.4 °F 32.7 °F 29.6 in West 25.9 mph 29.5 mph 63 % 0 in
03:29 44.2 °F 32.5 °F 29.6 in West 24.2 mph 25.9 mph 63 % 0 in
03:34 44.2 °F 31.6 °F 29.6 in West 22.6 mph 27.5 mph 61 % 0 in
03:39 44.2 °F 32.2 °F 29.6 in WSW 15.4 mph 27.5 mph 62 % 0 in
03:44 44.2 °F 32 °F 29.6 in WSW 20.1 mph 22.6 mph 62 % 0 in
03:49 44.2 °F 32.2 °F 29.6 in West 22.6 mph 23.3 mph 62 % 0 in
03:54 44.2 °F 32.5 °F 29.6 in WSW 19.5 mph 23.3 mph 63 % 0 in
03:59 44.2 °F 32.9 °F 29.6 in WSW 19.5 mph 22.8 mph 64 % 0 in
04:04 44.4 °F 33.1 °F 29.6 in West 21 mph 21 mph 64 % 0 in
04:09 44.4 °F 33.4 °F 29.6 in WSW 27.1 mph 27.1 mph 65 % 0 in
04:14 45 °F 33.4 °F 29.6 in West 15.4 mph 27.1 mph 64 % 0 in
04:19 44.8 °F 33.6 °F 29.6 in West 23.3 mph 27.1 mph 65 % 0 in
04:24 44.8 °F 33.3 °F 29.6 in West 30.2 mph 30.6 mph 64 % 0 in
04:29 44.4 °F 33.1 °F 29.6 in West 17.7 mph 30.6 mph 64 % 0 in
04:34 44.4 °F 33.1 °F 29.6 in WSW 19.7 mph 25.9 mph 64 % 0 in
04:39 44.4 °F 33.4 °F 29.6 in West 23.5 mph 25.5 mph 65 % 0 in
04:44 44.4 °F 33.1 °F 29.6 in West 27.5 mph 29.5 mph 64 % 0 in
04:49 44.4 °F 32.7 °F 29.6 in West 22.4 mph 29.5 mph 63 % 0 in
04:54 44.8 °F 32.9 °F 29.6 in West 23.9 mph 27.5 mph 63 % 0 in
04:59 44.8 °F 32.5 °F 29.6 in WSW 27.1 mph 27.3 mph 62 % 0 in
05:00 44.8 °F 32.5 °F 29.6 in West 19.7 mph 27.3 mph 62 % 0 in
05:05 44.4 °F 32.7 °F 29.6 in West 19.9 mph 27.1 mph 63 % 0 in
05:10 44.8 °F 33.3 °F 29.6 in WSW 17.7 mph 21.9 mph 64 % 0 in
05:15 44.4 °F 33.4 °F 29.6 in West 20.6 mph 21.9 mph 65 % 0 in
05:20 44.8 °F 33.6 °F 29.6 in WSW 17.4 mph 23.7 mph 65 % 0 in
05:25 45 °F 32.5 °F 29.6 in West 23 mph 25.3 mph 62 % 0 in
05:30 45 °F 32.5 °F 29.6 in WSW 23.5 mph 27.7 mph 62 % 0 in
05:35 45.1 °F 32.4 °F 29.6 in WSW 28.9 mph 32.7 mph 61 % 0 in
05:40 45.1 °F 31.6 °F 29.6 in South 23.5 mph 32.7 mph 59 % 0 in
05:45 45.1 °F 30.7 °F 29.6 in SSW 26.4 mph 30.4 mph 57 % 0 in
05:50 45.1 °F 30.7 °F 29.6 in WSW 28 mph 30.4 mph 57 % 0 in
05:55 45.1 °F 30.7 °F 29.6 in WNW 14.1 mph 30 mph 57 % 0 in
06:00 45 °F 30.6 °F 29.6 in West 30 mph 30.2 mph 57 % 0 in
06:05 45 °F 30.9 °F 29.6 in West 23.9 mph 30.2 mph 58 % 0 in
06:10 44.8 °F 30.7 °F 29.6 in West 17.7 mph 29.3 mph 58 % 0 in
06:15 44.8 °F 30.7 °F 29.6 in West 19.9 mph 29.3 mph 58 % 0 in
06:16 44.8 °F 30.7 °F 29.6 in West 19.9 mph 29.3 mph 58 % 0 in
06:21 44.8 °F 31.3 °F 29.6 in West 17.2 mph 23.3 mph 59 % 0 in
06:26 44.4 °F 31.1 °F 29.7 in WSW 18.8 mph 22.8 mph 59 % 0 in
06:31 44.2 °F 31.3 °F 29.7 in West 22.4 mph 22.8 mph 60 % 0 in
06:36 44.4 °F 30.7 °F 29.7 in WSW 22.6 mph 32 mph 58 % 0 in
06:41 44.4 °F 30.7 °F 29.6 in WSW 19.2 mph 32 mph 58 % 0 in
06:46 44.4 °F 30.2 °F 29.6 in West 22.1 mph 30 mph 57 % 0 in
06:51 44.2 °F 30.6 °F 29.6 in West 20.1 mph 30 mph 58 % 0 in
06:56 44.2 °F 30.4 °F 29.7 in West 19.7 mph 30 mph 58 % 0 in
07:01 44.2 °F 30 °F 29.7 in West 22.4 mph 26.2 mph 57 % 0 in
07:06 44.2 °F 30.6 °F 29.7 in West 19.7 mph 28.6 mph 58 % 0 in
07:11 44.2 °F 31.3 °F 29.7 in West 14.1 mph 28.6 mph 60 % 0 in
07:16 44.2 °F 30.7 °F 29.7 in West 25.1 mph 25.1 mph 59 % 0 in
07:21 44.2 °F 30.7 °F 29.7 in WSW 22.4 mph 25.1 mph 59 % 0 in
07:26 44.2 °F 30.4 °F 29.7 in SW 27.1 mph 27.1 mph 58 % 0 in
07:31 44.2 °F 29.7 °F 29.7 in WSW 27.5 mph 30.4 mph 56 % 0 in
07:36 44.2 °F 29.7 °F 29.7 in WSW 13.9 mph 33.1 mph 56 % 0 in
07:41 44.2 °F 29.8 °F 29.7 in West 25.1 mph 33.1 mph 57 % 0 in
07:46 44.2 °F 30.4 °F 29.7 in West 10.5 mph 25.1 mph 58 % 0 in
07:51 44.1 °F 30.6 °F 29.7 in WSW 14.8 mph 25.1 mph 59 % 0 in
07:56 43.9 °F 30.4 °F 29.7 in West 15.4 mph 23.5 mph 59 % 0 in
08:01 44.1 °F 30.9 °F 29.7 in West 13 mph 22.8 mph 60 % 0 in
08:06 44.1 °F 31.5 °F 29.7 in WSW 16.3 mph 22.4 mph 61 % 0 in
08:11 44.1 °F 31.5 °F 29.7 in WSW 16.1 mph 23.7 mph 61 % 0 in
08:16 44.2 °F 31.6 °F 29.7 in West 15.2 mph 23.7 mph 61 % 0 in
08:21 44.2 °F 32.2 °F 29.7 in WSW 17 mph 23.7 mph 62 % 0 in
08:26 44.4 °F 32.7 °F 29.7 in WSW 11 mph 23 mph 63 % 0 in
08:31 44.4 °F 32.7 °F 29.7 in WSW 13 mph 20.6 mph 63 % 0 in
08:33 44.8 °F 33.3 °F 29.7 in West 16.3 mph 20.6 mph 64 % 0 in
08:38 45.1 °F 33.6 °F 29.7 in WSW 22.4 mph 29.3 mph 64 % 0 in
08:43 45.1 °F 34.2 °F 29.7 in West 16.6 mph 29.3 mph 65 % 0 in
08:48 45.7 °F 33.6 °F 29.7 in West 16.6 mph 26.2 mph 63 % 0 in
08:53 45.9 °F 34 °F 29.7 in West 10.7 mph 23.5 mph 63 % 0 in
08:58 45.9 °F 34 °F 29.7 in West 23.5 mph 23.5 mph 63 % 0 in
09:03 46 °F 33.8 °F 29.7 in WSW 22.8 mph 25.3 mph 62 % 0 in
09:08 46 °F 34.2 °F 29.8 in West 11 mph 25.3 mph 63 % 0 in
09:13 46.2 °F 34 °F 29.8 in West 22.8 mph 22.8 mph 62 % 0 in
09:18 46.6 °F 34.2 °F 29.8 in WSW 13 mph 22.8 mph 62 % 0 in
09:23 46.6 °F 33.4 °F 29.8 in West 23.7 mph 25.9 mph 60 % 0 in
09:28 46.8 °F 34.2 °F 29.8 in West 17.7 mph 25.9 mph 61 % 0 in
09:33 46.9 °F 34.2 °F 29.8 in WSW 23.9 mph 24.6 mph 61 % 0 in
09:38 47.1 °F 34 °F 29.8 in WSW 26.6 mph 26.6 mph 60 % 0 in
09:43 47.3 °F 33.6 °F 29.8 in West 19.9 mph 34.7 mph 59 % 0 in
09:48 47.7 °F 34.5 °F 29.8 in West 26.8 mph 34.7 mph 60 % 0 in
09:53 47.8 °F 33.4 °F 29.8 in West 20.4 mph 31.8 mph 57 % 0 in
09:58 48 °F 33.4 °F 29.8 in WSW 22.8 mph 31.8 mph 57 % 0 in
10:03 48 °F 33.4 °F 29.8 in WSW 26.4 mph 28 mph 57 % 0 in
10:08 48.4 °F 33.4 °F 29.8 in West 21.3 mph 29.5 mph 56 % 0 in
10:13 48.4 °F 33.4 °F 29.8 in West 27.3 mph 29.5 mph 56 % 0 in
10:18 48.4 °F 33.1 °F 29.8 in West 24.2 mph 30 mph 55 % 0 in
10:23 48.7 °F 33.6 °F 29.8 in West 23.3 mph 30 mph 56 % 0 in
10:28 48.7 °F 33.3 °F 29.8 in West 23.3 mph 34.4 mph 55 % 0 in
10:33 48.9 °F 34.3 °F 29.8 in WSW 23.3 mph 34.4 mph 57 % 0 in
10:35 48.9 °F 34 °F 29.8 in NW 15.4 mph 34.4 mph 56 % 0 in
10:40 49.1 °F 34.2 °F 29.8 in West 32.4 mph 32.4 mph 56 % 0 in
10:45 49.5 °F 34 °F 29.8 in West 25.9 mph 32.4 mph 55 % 0 in
10:50 49.3 °F 33.3 °F 29.8 in WSW 18.8 mph 31.1 mph 54 % 0 in
10:55 49.5 °F 34 °F 29.8 in West 16.6 mph 31.1 mph 55 % 0 in
11:00 49.6 °F 32.7 °F 29.8 in West 23.7 mph 34.7 mph 52 % 0 in
11:05 49.8 °F 33.4 °F 29.8 in West 23.5 mph 34.7 mph 53 % 0 in
11:10 49.8 °F 33.4 °F 29.8 in West 26.2 mph 29.1 mph 53 % 0 in
11:15 49.3 °F 32.4 °F 29.8 in West 10.7 mph 29.8 mph 52 % 0 in
11:20 49.1 °F 32.7 °F 29.8 in West 17.2 mph 29.8 mph 53 % 0 in
11:25 48.7 °F 32.4 °F 29.8 in WNW 20.4 mph 36.9 mph 53 % 0 in
11:30 48.6 °F 32.7 °F 29.8 in West 23.3 mph 36.9 mph 54 % 0 in
11:35 48.6 °F 32.7 °F 29.8 in West 23.9 mph 30.4 mph 54 % 0 in
11:40 48.9 °F 33.4 °F 29.8 in West 13.2 mph 30.2 mph 55 % 0 in
11:45 48.9 °F 33.4 °F 29.8 in WSW 19.7 mph 28.6 mph 55 % 0 in
11:50 49.1 °F 33.6 °F 29.8 in WNW 22.6 mph 28.6 mph 55 % 0 in
11:55 49.1 °F 33.6 °F 29.8 in West 22.4 mph 28.4 mph 55 % 0 in
12:00 49.3 °F 32.9 °F 29.8 in West 14.8 mph 28.4 mph 53 % 0 in
12:05 49.3 °F 32.9 °F 29.8 in West 22.4 mph 32.4 mph 53 % 0 in
12:10 50.2 °F 34.2 °F 29.9 in West 22.8 mph 32.4 mph 54 % 0 in
12:15 50.4 °F 33.8 °F 29.9 in West 18.1 mph 30.2 mph 53 % 0 in
12:20 50.4 °F 33.8 °F 29.9 in WNW 25.1 mph 30.4 mph 53 % 0 in
12:25 50.2 °F 33.6 °F 29.9 in WSW 17.4 mph 30.4 mph 53 % 0 in
12:30 50 °F 33.4 °F 29.9 in West 26.2 mph 32.9 mph 53 % 0 in
12:35 50.2 °F 33.3 °F 29.9 in WNW 17.7 mph 32.9 mph 52 % 0 in
12:40 50.4 °F 34.3 °F 29.9 in West 23 mph 32.7 mph 54 % 0 in
12:45 50 °F 33.4 °F 29.9 in WSW 23.3 mph 23.9 mph 53 % 0 in
12:50 49.8 °F 33.8 °F 29.9 in WSW 22.8 mph 25.7 mph 54 % 0 in
12:55 50 °F 34 °F 29.8 in West 19.5 mph 29.5 mph 54 % 0 in
13:00 50 °F 33.1 °F 29.8 in WSW 17.2 mph 29.5 mph 52 % 0 in
13:05 50 °F 33.4 °F 29.8 in WSW 22.8 mph 26.2 mph 53 % 0 in
13:10 49.8 °F 33.4 °F 29.9 in West 14.8 mph 28.4 mph 53 % 0 in
13:15 49.8 °F 33.4 °F 29.9 in West 21.5 mph 28.4 mph 53 % 0 in
13:20 49.8 °F 32.9 °F 29.9 in West 18.1 mph 27.1 mph 52 % 0 in
13:25 49.8 °F 33.4 °F 29.9 in West 17.4 mph 27.1 mph 53 % 0 in
13:30 49.8 °F 32.9 °F 29.9 in West 22.6 mph 31.8 mph 52 % 0 in
13:35 50.5 °F 34 °F 29.9 in WSW 21 mph 31.8 mph 53 % 0 in
13:40 51.3 °F 35.1 °F 29.9 in West 23.7 mph 28.4 mph 54 % 0 in
13:45 50.5 °F 34 °F 29.9 in WSW 17.4 mph 28.4 mph 53 % 0 in
13:50 49.8 °F 32.9 °F 29.9 in West 17.7 mph 26.8 mph 52 % 0 in
13:55 49.5 °F 33.1 °F 29.9 in WSW 23.9 mph 28 mph 53 % 0 in
14:00 49.5 °F 33.1 °F 29.9 in West 17.4 mph 28 mph 53 % 0 in
14:05 49.8 °F 33.8 °F 29.9 in WSW 13 mph 25.5 mph 54 % 0 in
14:10 49.5 °F 33.1 °F 29.9 in West 16.3 mph 25.3 mph 53 % 0 in
14:15 49.1 °F 32.7 °F 29.9 in West 17.4 mph 25.3 mph 53 % 0 in
14:20 49.8 °F 33.8 °F 29.9 in WSW 16.6 mph 23.5 mph 54 % 0 in
14:25 49.8 °F 33.4 °F 29.9 in WSW 19.9 mph 23 mph 53 % 0 in
14:30 49.6 °F 33.3 °F 29.9 in West 19.9 mph 23 mph 53 % 0 in
14:35 49.8 °F 33.4 °F 29.9 in West 19.7 mph 25.3 mph 53 % 0 in
14:40 49.8 °F 33.4 °F 29.9 in West 20.6 mph 25.3 mph 53 % 0 in
14:45 49.8 °F 33.4 °F 29.9 in West 19.9 mph 23.9 mph 53 % 0 in
14:51 49.8 °F 33.4 °F 29.9 in West 22.1 mph 23.9 mph 53 % 0 in
14:56 49.8 °F 33.4 °F 29.9 in WSW 10.7 mph 22.1 mph 53 % 0 in
15:01 49.8 °F 33.4 °F 29.9 in West 13 mph 20.1 mph 53 % 0 in
15:06 50 °F 33.4 °F 29.9 in WSW 17.7 mph 21.3 mph 53 % 0 in
15:11 50.2 °F 33.6 °F 29.9 in West 10.7 mph 21.3 mph 53 % 0 in
15:16 50.2 °F 33.6 °F 29.9 in West 17.4 mph 23.3 mph 53 % 0 in
15:21 50.9 °F 34.9 °F 29.9 in West 15.9 mph 23.3 mph 54 % 0 in
15:26 50.7 °F 34.2 °F 29.9 in WSW 17.7 mph 23.3 mph 53 % 0 in
15:31 51.3 °F 34.2 °F 29.9 in WSW 14.1 mph 23.7 mph 52 % 0 in
15:36 51.6 °F 34.5 °F 29.9 in West 15.4 mph 23.7 mph 52 % 0 in
15:41 51.1 °F 34.5 °F 29.9 in West 10.5 mph 22.6 mph 53 % 0 in
15:46 50.9 °F 34.3 °F 29.9 in West 11 mph 18.8 mph 53 % 0 in
15:51 51.4 °F 34.3 °F 29.9 in West 14.8 mph 21.3 mph 52 % 0 in
15:56 51.4 °F 34.3 °F 29.9 in West 15.4 mph 21.3 mph 52 % 0 in
16:01 51.4 °F 34.3 °F 29.9 in WSW 15.4 mph 19.7 mph 52 % 0 in
16:06 51.6 °F 34.5 °F 29.9 in West 12.8 mph 19.7 mph 52 % 0 in
16:11 51.4 °F 34 °F 29.9 in WSW 13 mph 22.4 mph 51 % 0 in
16:16 51.6 °F 34.5 °F 29.9 in West 10.5 mph 22.4 mph 52 % 0 in
16:21 51.6 °F 34.5 °F 29.9 in West 17.2 mph 18.6 mph 52 % 0 in
16:26 51.4 °F 34.3 °F 29.9 in WSW 17 mph 19.7 mph 52 % 0 in
16:31 51.1 °F 34 °F 29.9 in West 10.1 mph 19.9 mph 52 % 0 in
16:36 51.1 °F 34.5 °F 29.9 in West 14.8 mph 19.9 mph 53 % 0 in
16:41 50.9 °F 34.3 °F 29.9 in WSW 17.9 mph 20.1 mph 53 % 0 in
16:46 50.5 °F 34 °F 29.9 in West 17.2 mph 20.1 mph 53 % 0 in
16:51 50.4 °F 34.3 °F 29.9 in West 19.5 mph 19.9 mph 54 % 0 in
16:56 49.8 °F 33.4 °F 29.9 in West 9.8 mph 19.5 mph 53 % 0 in
17:01 49.8 °F 33.8 °F 29.9 in West 13.4 mph 19.5 mph 54 % 0 in
17:06 49.6 °F 33.6 °F 29.9 in West 13 mph 17.7 mph 54 % 0 in
17:11 49.5 °F 34 °F 29.9 in WSW 12.5 mph 15.4 mph 55 % 0 in
17:16 49.3 °F 33.3 °F 29.9 in WSW 17.2 mph 17.4 mph 54 % 0 in
17:21 49.3 °F 32.9 °F 29.9 in WSW 15.9 mph 19.7 mph 53 % 0 in
17:26 49.1 °F 32.2 °F 29.9 in WSW 17.9 mph 22.8 mph 52 % 0 in
17:31 48.7 °F 31.8 °F 29.9 in West 15.4 mph 22.8 mph 52 % 0 in
17:36 48.6 °F 31.3 °F 29.9 in WSW 14.3 mph 20.6 mph 51 % 0 in
17:41 48.4 °F 31.6 °F 29.9 in West 19.9 mph 19.9 mph 52 % 0 in
17:46 48.4 °F 32 °F 29.9 in West 12.5 mph 19.9 mph 53 % 0 in
17:51 48 °F 32.2 °F 29.9 in WSW 7.8 mph 17.4 mph 54 % 0 in
17:56 47.7 °F 32.4 °F 29.9 in West 7.6 mph 15.7 mph 55 % 0 in
18:01 47.3 °F 32.9 °F 29.9 in WSW 8.5 mph 13 mph 57 % 0 in
18:06 46.9 °F 33.4 °F 29.9 in WSW 12.5 mph 13.2 mph 59 % 0 in
18:11 46.9 °F 33.4 °F 29.9 in WSW 13.6 mph 17.4 mph 59 % 0 in
18:16 46.6 °F 33.4 °F 29.9 in WNW 7.4 mph 17.4 mph 60 % 0 in
18:21 46.2 °F 33.6 °F 29.9 in WSW 12.5 mph 15.2 mph 61 % 0 in
18:26 46.2 °F 33.3 °F 29.9 in West 13 mph 18.1 mph 60 % 0 in
18:36 45.7 °F 32.9 °F 29.9 in WSW 7.6 mph 14.8 mph 61 % 0 in
18:41 45.1 °F 33.3 °F 29.9 in WSW 7.4 mph 10.1 mph 63 % 0 in
18:46 45 °F 34.2 °F 29.9 in WSW 8.7 mph 12.1 mph 66 % 0 in
18:51 44.8 °F 34.9 °F 29.9 in WSW 9.4 mph 13 mph 68 % 0 in
18:56 44.4 °F 34.5 °F 29.9 in WSW 5.8 mph 13 mph 68 % 0 in
19:01 44.2 °F 35.1 °F 29.9 in WSW 8.9 mph 10.3 mph 70 % 0 in
19:06 44.1 °F 35.2 °F 29.9 in WSW 9.8 mph 10.3 mph 71 % 0 in
19:11 43.9 °F 35.1 °F 29.9 in SW 7.6 mph 10.3 mph 71 % 0 in
19:16 43.9 °F 35.8 °F 29.9 in WSW 8.5 mph 10.3 mph 73 % 0 in
19:21 43.5 °F 35.6 °F 29.9 in WSW 8.7 mph 11.9 mph 73 % 0 in
19:26 43.5 °F 35.4 °F 29.9 in WSW 7.2 mph 11.9 mph 73 % 0 in
19:31 43.2 °F 35.4 °F 29.9 in WSW 6.5 mph 8.5 mph 74 % 0 in
19:36 43.2 °F 35.4 °F 29.9 in WSW 5.4 mph 8.5 mph 74 % 0 in
19:41 43 °F 35.6 °F 30 in WSW 6 mph 8.5 mph 75 % 0 in
19:46 42.8 °F 35.4 °F 30 in WSW 6.3 mph 7.6 mph 75 % 0 in
19:51 43 °F 36 °F 30 in SW 5.6 mph 8.7 mph 76 % 0 in
19:56 43.2 °F 36.3 °F 30 in SW 5.6 mph 8.7 mph 77 % 0 in
20:01 43.3 °F 36.7 °F 30 in WSW 5.6 mph 7.6 mph 77 % 0 in
20:06 43.2 °F 36.3 °F 30 in WSW 4.9 mph 8.1 mph 77 % 0 in
20:11 43.2 °F 36.3 °F 29.9 in SW 6.5 mph 8.1 mph 77 % 0 in
20:16 43 °F 36.1 °F 29.9 in WSW 6.3 mph 8.1 mph 77 % 0 in
20:21 42.8 °F 36 °F 29.9 in WSW 5.6 mph 7.4 mph 77 % 0 in
20:26 42.8 °F 36 °F 29.9 in SSW 7.6 mph 7.6 mph 77 % 0 in
20:31 43 °F 36.1 °F 29.9 in SW 5.6 mph 7.6 mph 77 % 0 in
20:36 43 °F 36.1 °F 29.9 in WSW 4.9 mph 7.6 mph 77 % 0 in
20:41 43 °F 36.1 °F 29.9 in WSW 5.4 mph 7.2 mph 77 % 0 in
20:46 43 °F 36.1 °F 29.9 in SW 5.4 mph 7.2 mph 77 % 0 in
20:51 42.8 °F 36 °F 29.9 in WSW 5.4 mph 7.2 mph 77 % 0 in
20:56 42.8 °F 36 °F 29.9 in WSW 4.9 mph 7.2 mph 77 % 0 in
21:01 42.8 °F 36 °F 29.9 in SW 6.5 mph 7.6 mph 77 % 0 in
21:06 42.6 °F 36 °F 29.9 in SW 5.4 mph 7.6 mph 77 % 0 in
21:11 42.8 °F 36 °F 29.9 in SSW 6.3 mph 7.4 mph 77 % 0 in
21:17 42.8 °F 36 °F 29.9 in WSW 5.6 mph 6.5 mph 77 % 0 in
21:22 42.6 °F 36 °F 29.9 in SSW 4.9 mph 6.3 mph 77 % 0 in
21:27 42.4 °F 35.8 °F 30 in SW 5.6 mph 5.8 mph 77 % 0 in
21:32 42.3 °F 35.4 °F 30 in SW 4.9 mph 6 mph 77 % 0 in
21:37 42.4 °F 36 °F 30 in WSW 4.9 mph 6.3 mph 78 % 0 in
21:42 42.3 °F 36 °F 29.9 in SSW 6 mph 6.3 mph 78 % 0 in
21:47 42.3 °F 36 °F 29.9 in WSW 4.9 mph 6.3 mph 78 % 0 in
21:52 42.3 °F 36 °F 29.9 in WSW 4.5 mph 7.2 mph 78 % 0 in
21:57 41.5 °F 34.9 °F 30 in Calm   7.2 mph 77 % 0 in
22:02 41.4 °F 34.7 °F 30 in Calm   4.9 mph 77 % 0 in
22:07 41 °F 34.7 °F 30 in Calm   4.7 mph 78 % 0 in
22:12 40.8 °F 34.5 °F 29.9 in Calm   2.7 mph 78 % 0 in
22:17 40.5 °F 34.2 °F 29.9 in Calm   3.1 mph 78 % 0 in
22:22 40.1 °F 33.8 °F 29.9 in Calm   3.1 mph 78 % 0 in
22:27 39.7 °F 33.8 °F 29.9 in Calm   2.2 mph 79 % 0 in
22:32 39.4 °F 33.4 °F 29.9 in Calm   1.6 mph 79 % 0 in
22:37 39.2 °F 33.3 °F 29.9 in Calm     79 % 0 in
22:42 39 °F 33.4 °F 29.9 in Calm     80 % 0 in
22:47 38.8 °F 33.4 °F 29.9 in Calm   2.7 mph 81 % 0 in
22:52 38.7 °F 33.4 °F 29.9 in SW 2.9 mph 3.1 mph 81 % 0 in
22:57 38.7 °F 33.6 °F 29.9 in Calm   3.1 mph 82 % 0 in
23:02 38.7 °F 33.6 °F 29.9 in Calm   2.7 mph 82 % 0 in
23:07 38.5 °F 33.4 °F 29.9 in Calm   2.5 mph 82 % 0 in
23:12 38.5 °F 33.3 °F 29.9 in South 2.9 mph 3.6 mph 82 % 0 in
23:17 38.5 °F 33.6 °F 29.9 in Calm   3.8 mph 83 % 0 in
23:22 38.5 °F 33.6 °F 29.9 in Calm   4.3 mph 83 % 0 in
23:27 38.5 °F 33.6 °F 29.9 in Calm   4.3 mph 83 % 0 in
23:32 38.1 °F 33.8 °F 29.9 in South 1.3 mph 2.5 mph 84 % 0 in
23:37 37.9 °F 33.6 °F 29.9 in South 2.5 mph 3.1 mph 84 % 0 in
23:42 37.9 °F 34 °F 29.9 in Calm   3.4 mph 85 % 0 in
23:47 37.9 °F 34 °F 29.9 in Calm   3.4 mph 85 % 0 in
23:52 37.9 °F 34 °F 29.9 in Calm   2.2 mph 85 % 0 in
23:57 37.9 °F 34 °F 29.9 in SSE 2.7 mph 2.7 mph 85 % 0 in
Le Gheer Warneton
Courtoisie de Weather Underground - 2.25 mb

Mise a jour : 16-12-17 15:52:10
Généré par Cumulus 1.9.4 (1099)